sensor_id;sensor_type;location;lat;lon;timestamp;pressure;altitude;pressure_sealevel;temperature;humidity
21863;BME280;11096;51.338;12.524;2023-07-20T00:02:19;99751.94;;;19.70;88.50
21863;BME280;11096;51.338;12.524;2023-07-20T00:04:44;99759.69;;;19.63;87.28
21863;BME280;11096;51.338;12.524;2023-07-20T00:07:10;99762.19;;;19.88;86.62
21863;BME280;11096;51.338;12.524;2023-07-20T00:09:35;99763.25;;;17.69;88.31
21863;BME280;11096;51.338;12.524;2023-07-20T00:12:01;99764.34;;;19.53;90.84
21863;BME280;11096;51.338;12.524;2023-07-20T00:14:26;99773.50;;;17.37;94.07
21863;BME280;11096;51.338;12.524;2023-07-20T00:16:51;99774.34;;;18.71;100.00
21863;BME280;11096;51.338;12.524;2023-07-20T00:19:24;99755.06;;;19.97;90.62
21863;BME280;11096;51.338;12.524;2023-07-20T00:21:50;99760.38;;;20.11;88.30
21863;BME280;11096;51.338;12.524;2023-07-20T00:24:16;99754.47;;;20.09;88.22
21863;BME280;11096;51.338;12.524;2023-07-20T00:26:42;99749.19;;;20.09;89.41
21863;BME280;11096;51.338;12.524;2023-07-20T00:29:07;99750.38;;;20.07;87.73
21863;BME280;11096;51.338;12.524;2023-07-20T00:31:32;99759.72;;;20.32;86.28
21863;BME280;11096;51.338;12.524;2023-07-20T00:34:00;99755.34;;;20.40;86.24
21863;BME280;11096;51.338;12.524;2023-07-20T00:36:25;99761.50;;;20.55;87.87
21863;BME280;11096;51.338;12.524;2023-07-20T00:38:51;99758.44;;;20.66;87.11
21863;BME280;11096;51.338;12.524;2023-07-20T00:41:16;99757.63;;;20.05;88.20
21863;BME280;11096;51.338;12.524;2023-07-20T00:43:41;99759.44;;;19.50;95.66
21863;BME280;11096;51.338;12.524;2023-07-20T00:46:08;99756.97;;;20.64;90.54
21863;BME280;11096;51.338;12.524;2023-07-20T00:48:34;99745.84;;;22.00;85.45
21863;BME280;11096;51.338;12.524;2023-07-20T00:51:00;99749.88;;;21.75;80.93
21863;BME280;11096;51.338;12.524;2023-07-20T00:53:27;99744.84;;;20.16;84.24
21863;BME280;11096;51.338;12.524;2023-07-20T00:55:53;99746.50;;;20.55;85.44
21863;BME280;11096;51.338;12.524;2023-07-20T00:58:19;99753.16;;;19.51;89.94
21863;BME280;11096;51.338;12.524;2023-07-20T01:00:44;99753.69;;;20.01;92.36
21863;BME280;11096;51.338;12.524;2023-07-20T01:03:10;99751.34;;;21.11;87.88
21863;BME280;11096;51.338;12.524;2023-07-20T01:05:48;99759.69;;;19.63;91.07
21863;BME280;11096;51.338;12.524;2023-07-20T01:08:36;99767.03;;;19.76;94.52
21863;BME280;11096;51.338;12.524;2023-07-20T01:11:10;99771.47;;;17.74;100.00
21863;BME280;11096;51.338;12.524;2023-07-20T01:13:38;99758.94;;;19.46;98.87
21863;BME280;11096;51.338;12.524;2023-07-20T01:16:04;99761.22;;;19.58;99.32
21863;BME280;11096;51.338;12.524;2023-07-20T01:18:30;99760.84;;;19.92;96.13
21863;BME280;11096;51.338;12.524;2023-07-20T01:21:13;99756.19;;;19.79;95.42
21863;BME280;11096;51.338;12.524;2023-07-20T01:32:17;99751.34;;;19.51;97.29
21863;BME280;11096;51.338;12.524;2023-07-20T01:34:44;99746.63;;;17.52;100.00
21863;BME280;11096;51.338;12.524;2023-07-20T01:37:11;99737.81;;;20.09;95.84
21863;BME280;11096;51.338;12.524;2023-07-20T01:39:38;99732.44;;;19.79;95.70
21863;BME280;11096;51.338;12.524;2023-07-20T01:42:04;99733.25;;;19.48;94.71
21863;BME280;11096;51.338;12.524;2023-07-20T01:44:29;99741.94;;;19.26;97.46
21863;BME280;11096;51.338;12.524;2023-07-20T01:46:55;99737.88;;;20.01;96.69
21863;BME280;11096;51.338;12.524;2023-07-20T01:49:20;99731.78;;;20.91;90.95
21863;BME280;11096;51.338;12.524;2023-07-20T01:51:47;99735.75;;;19.73;87.71
21863;BME280;11096;51.338;12.524;2023-07-20T01:54:12;99739.41;;;19.01;93.38
21863;BME280;11096;51.338;12.524;2023-07-20T01:56:38;99747.72;;;20.45;90.78
21863;BME280;11096;51.338;12.524;2023-07-20T01:59:03;99746.53;;;19.24;90.41
21863;BME280;11096;51.338;12.524;2023-07-20T02:01:28;99749.47;;;18.98;95.91
21863;BME280;11096;51.338;12.524;2023-07-20T02:03:54;99746.81;;;19.68;94.83
21863;BME280;11096;51.338;12.524;2023-07-20T02:06:20;99751.16;;;18.66;91.73
21863;BME280;11096;51.338;12.524;2023-07-20T02:08:45;99747.47;;;19.70;91.05
21863;BME280;11096;51.338;12.524;2023-07-20T02:11:11;99751.25;;;19.05;95.06
21863;BME280;11096;51.338;12.524;2023-07-20T02:13:36;99753.91;;;17.66;95.50
21863;BME280;11096;51.338;12.524;2023-07-20T02:16:01;99761.25;;;17.54;94.28
21863;BME280;11096;51.338;12.524;2023-07-20T02:18:27;99758.31;;;19.76;92.30
21863;BME280;11096;51.338;12.524;2023-07-20T02:20:53;99765.47;;;17.90;94.18
21863;BME280;11096;51.338;12.524;2023-07-20T02:23:19;99769.44;;;18.02;94.54
21863;BME280;11096;51.338;12.524;2023-07-20T02:25:44;99771.91;;;18.36;95.85
21863;BME280;11096;51.338;12.524;2023-07-20T02:28:13;99765.91;;;18.92;94.03
21863;BME280;11096;51.338;12.524;2023-07-20T02:30:38;99769.31;;;19.08;90.86
21863;BME280;11096;51.338;12.524;2023-07-20T02:33:04;99763.06;;;19.09;91.93
21863;BME280;11096;51.338;12.524;2023-07-20T02:35:31;99760.81;;;18.98;93.66
21863;BME280;11096;51.338;12.524;2023-07-20T02:37:57;99762.78;;;18.96;91.67
21863;BME280;11096;51.338;12.524;2023-07-20T02:40:22;99764.78;;;18.86;92.39
21863;BME280;11096;51.338;12.524;2023-07-20T02:42:48;99775.78;;;18.98;93.39
21863;BME280;11096;51.338;12.524;2023-07-20T02:45:13;99777.97;;;18.61;94.67
21863;BME280;11096;51.338;12.524;2023-07-20T02:47:39;99780.22;;;18.97;93.04
21863;BME280;11096;51.338;12.524;2023-07-20T02:50:07;99774.94;;;18.97;93.76
21863;BME280;11096;51.338;12.524;2023-07-20T02:52:33;99787.81;;;17.86;94.73
21863;BME280;11096;51.338;12.524;2023-07-20T02:54:58;99788.28;;;17.30;97.06
21863;BME280;11096;51.338;12.524;2023-07-20T02:57:23;99780.75;;;18.84;95.22
21863;BME280;11096;51.338;12.524;2023-07-20T02:59:49;99787.03;;;18.59;97.01
21863;BME280;11096;51.338;12.524;2023-07-20T03:02:14;99787.13;;;18.98;99.42
21863;BME280;11096;51.338;12.524;2023-07-20T03:04:40;99784.63;;;19.52;97.38
21863;BME280;11096;51.338;12.524;2023-07-20T03:07:05;99783.91;;;18.31;93.07
21863;BME280;11096;51.338;12.524;2023-07-20T03:09:32;99783.31;;;20.11;94.81
21863;BME280;11096;51.338;12.524;2023-07-20T03:11:57;99785.09;;;21.60;89.18
21863;BME280;11096;51.338;12.524;2023-07-20T03:14:23;99779.84;;;20.86;86.07
21863;BME280;11096;51.338;12.524;2023-07-20T03:16:49;99782.13;;;20.36;85.34
21863;BME280;11096;51.338;12.524;2023-07-20T03:19:14;99783.69;;;20.84;83.63
21863;BME280;11096;51.338;12.524;2023-07-20T03:21:40;99784.19;;;20.64;88.07
21863;BME280;11096;51.338;12.524;2023-07-20T03:24:07;99779.97;;;20.93;87.16
21863;BME280;11096;51.338;12.524;2023-07-20T03:26:34;99787.84;;;18.59;90.66
21863;BME280;11096;51.338;12.524;2023-07-20T03:29:00;99795.06;;;17.15;94.81
21863;BME280;11096;51.338;12.524;2023-07-20T03:31:25;99799.84;;;18.45;100.00
21863;BME280;11096;51.338;12.524;2023-07-20T03:33:52;99793.66;;;17.71;99.12
21863;BME280;11096;51.338;12.524;2023-07-20T03:36:17;99796.75;;;17.58;99.57
21863;BME280;11096;51.338;12.524;2023-07-20T03:38:42;99788.66;;;17.44;99.28
21863;BME280;11096;51.338;12.524;2023-07-20T03:41:08;99795.88;;;17.50;99.65
21863;BME280;11096;51.338;12.524;2023-07-20T03:43:34;99795.25;;;18.48;97.58
21863;BME280;11096;51.338;12.524;2023-07-20T03:46:00;99805.59;;;18.57;97.79
21863;BME280;11096;51.338;12.524;2023-07-20T03:48:25;99801.81;;;18.68;97.42
21863;BME280;11096;51.338;12.524;2023-07-20T03:50:52;99798.19;;;18.69;92.44
21863;BME280;11096;51.338;12.524;2023-07-20T03:53:18;99802.94;;;18.98;94.77
21863;BME280;11096;51.338;12.524;2023-07-20T03:55:47;99801.69;;;19.73;85.02
21863;BME280;11096;51.338;12.524;2023-07-20T03:58:14;99796.34;;;19.42;84.14
21863;BME280;11096;51.338;12.524;2023-07-20T04:00:40;99799.84;;;19.42;83.41
21863;BME280;11096;51.338;12.524;2023-07-20T04:03:06;99803.53;;;19.64;83.68
21863;BME280;11096;51.338;12.524;2023-07-20T04:05:31;99804.75;;;19.85;82.13
21863;BME280;11096;51.338;12.524;2023-07-20T04:07:56;99800.06;;;19.95;80.00
21863;BME280;11096;51.338;12.524;2023-07-20T04:10:22;99805.16;;;20.20;78.51
21863;BME280;11096;51.338;12.524;2023-07-20T04:12:47;99801.19;;;21.29;73.08
21863;BME280;11096;51.338;12.524;2023-07-20T04:15:13;99801.19;;;21.14;71.96
21863;BME280;11096;51.338;12.524;2023-07-20T04:17:39;99804.63;;;21.59;70.91
21863;BME280;11096;51.338;12.524;2023-07-20T04:20:06;99811.66;;;21.22;71.86
21863;BME280;11096;51.338;12.524;2023-07-20T04:22:32;99823.25;;;19.37;72.87
21863;BME280;11096;51.338;12.524;2023-07-20T04:24:57;99807.66;;;21.12;69.82
21863;BME280;11096;51.338;12.524;2023-07-20T04:27:22;99812.97;;;21.78;67.65
21863;BME280;11096;51.338;12.524;2023-07-20T04:29:48;99806.22;;;21.39;66.50
21863;BME280;11096;51.338;12.524;2023-07-20T04:32:13;99801.88;;;21.38;66.26
21863;BME280;11096;51.338;12.524;2023-07-20T04:34:38;99808.56;;;21.63;66.11
21863;BME280;11096;51.338;12.524;2023-07-20T04:37:04;99806.25;;;20.86;67.82
21863;BME280;11096;51.338;12.524;2023-07-20T04:39:30;99813.84;;;18.54;70.92
21863;BME280;11096;51.338;12.524;2023-07-20T04:41:56;99797.34;;;20.87;69.63
21863;BME280;11096;51.338;12.524;2023-07-20T04:44:21;99795.31;;;21.34;69.03
21863;BME280;11096;51.338;12.524;2023-07-20T04:46:47;99800.56;;;21.42;67.93
21863;BME280;11096;51.338;12.524;2023-07-20T04:49:12;99805.00;;;20.97;69.46
21863;BME280;11096;51.338;12.524;2023-07-20T04:51:38;99801.53;;;21.41;67.16
21863;BME280;11096;51.338;12.524;2023-07-20T04:54:04;99808.63;;;21.26;68.15
21863;BME280;11096;51.338;12.524;2023-07-20T04:56:29;99805.72;;;21.20;68.38
21863;BME280;11096;51.338;12.524;2023-07-20T04:58:55;99812.06;;;20.67;69.06
21863;BME280;11096;51.338;12.524;2023-07-20T05:01:20;99814.19;;;20.25;71.05
21863;BME280;11096;51.338;12.524;2023-07-20T05:03:46;99807.69;;;20.36;71.23
21863;BME280;11096;51.338;12.524;2023-07-20T05:06:11;99808.78;;;20.79;71.19
21863;BME280;11096;51.338;12.524;2023-07-20T05:08:37;99813.47;;;20.54;70.47
21863;BME280;11096;51.338;12.524;2023-07-20T05:11:04;99815.19;;;20.24;70.90
21863;BME280;11096;51.338;12.524;2023-07-20T05:13:29;99823.78;;;19.72;71.98
21863;BME280;11096;51.338;12.524;2023-07-20T05:15:55;99822.22;;;20.55;70.57
21863;BME280;11096;51.338;12.524;2023-07-20T05:18:20;99819.09;;;20.74;70.75
21863;BME280;11096;51.338;12.524;2023-07-20T05:20:47;99821.03;;;20.57;71.66
21863;BME280;11096;51.338;12.524;2023-07-20T05:23:13;99827.31;;;21.09;69.93
21863;BME280;11096;51.338;12.524;2023-07-20T05:25:38;99833.06;;;21.13;71.37
21863;BME280;11096;51.338;12.524;2023-07-20T05:28:04;99814.59;;;21.42;68.27
21863;BME280;11096;51.338;12.524;2023-07-20T05:30:29;99818.19;;;21.71;67.04
21863;BME280;11096;51.338;12.524;2023-07-20T05:32:54;99821.91;;;21.77;66.44
21863;BME280;11096;51.338;12.524;2023-07-20T05:35:20;99819.53;;;21.82;65.75
21863;BME280;11096;51.338;12.524;2023-07-20T05:37:45;99818.41;;;21.91;65.74
21863;BME280;11096;51.338;12.524;2023-07-20T05:40:12;99814.19;;;22.18;65.08
21863;BME280;11096;51.338;12.524;2023-07-20T05:42:38;99818.22;;;21.12;65.72
21863;BME280;11096;51.338;12.524;2023-07-20T05:45:04;99821.72;;;21.78;64.93
21863;BME280;11096;51.338;12.524;2023-07-20T05:47:30;99820.50;;;21.96;64.96
21863;BME280;11096;51.338;12.524;2023-07-20T05:49:55;99827.72;;;21.87;64.56
21863;BME280;11096;51.338;12.524;2023-07-20T05:52:20;99833.34;;;21.48;64.00
21863;BME280;11096;51.338;12.524;2023-07-20T05:54:46;99827.31;;;21.69;63.90
21863;BME280;11096;51.338;12.524;2023-07-20T05:57:11;99830.19;;;22.25;62.03
21863;BME280;11096;51.338;12.524;2023-07-20T05:59:37;99832.78;;;22.03;61.59
21863;BME280;11096;51.338;12.524;2023-07-20T06:02:03;99834.94;;;22.36;62.27
21863;BME280;11096;51.338;12.524;2023-07-20T06:04:29;99832.56;;;22.05;61.99
21863;BME280;11096;51.338;12.524;2023-07-20T06:06:54;99836.31;;;22.11;62.83
21863;BME280;11096;51.338;12.524;2023-07-20T06:09:22;99833.91;;;21.94;62.55
21863;BME280;11096;51.338;12.524;2023-07-20T06:11:48;99839.69;;;22.41;61.58
21863;BME280;11096;51.338;12.524;2023-07-20T06:14:13;99838.97;;;22.54;61.02
21863;BME280;11096;51.338;12.524;2023-07-20T06:16:40;99837.38;;;22.59;60.96
21863;BME280;11096;51.338;12.524;2023-07-20T06:19:05;99837.03;;;23.25;59.07
21863;BME280;11096;51.338;12.524;2023-07-20T06:21:31;99840.78;;;23.03;59.34
21863;BME280;11096;51.338;12.524;2023-07-20T06:23:56;99836.63;;;21.50;61.01
21863;BME280;11096;51.338;12.524;2023-07-20T06:26:22;99841.66;;;23.51;59.71
21863;BME280;11096;51.338;12.524;2023-07-20T06:28:47;99839.06;;;23.65;58.48
21863;BME280;11096;51.338;12.524;2023-07-20T06:31:12;99837.03;;;24.35;58.14
21863;BME280;11096;51.338;12.524;2023-07-20T06:33:38;99835.84;;;24.57;55.25
21863;BME280;11096;51.338;12.524;2023-07-20T06:36:04;99832.56;;;23.26;56.91
21863;BME280;11096;51.338;12.524;2023-07-20T06:38:29;99831.06;;;23.10;57.60
21863;BME280;11096;51.338;12.524;2023-07-20T06:40:54;99836.69;;;23.76;57.09
21863;BME280;11096;51.338;12.524;2023-07-20T06:43:20;99826.78;;;23.09;56.70
21863;BME280;11096;51.338;12.524;2023-07-20T06:45:51;99837.31;;;23.78;57.79
21863;BME280;11096;51.338;12.524;2023-07-20T06:48:17;99835.97;;;24.03;57.02
21863;BME280;11096;51.338;12.524;2023-07-20T06:50:43;99837.16;;;25.33;54.34
21863;BME280;11096;51.338;12.524;2023-07-20T06:53:08;99837.34;;;23.92;56.97
21863;BME280;11096;51.338;12.524;2023-07-20T06:55:33;99837.59;;;24.24;55.49
21863;BME280;11096;51.338;12.524;2023-07-20T06:57:59;99825.97;;;24.31;55.28
21863;BME280;11096;51.338;12.524;2023-07-20T07:00:24;99828.44;;;24.39;55.06
21863;BME280;11096;51.338;12.524;2023-07-20T07:02:50;99834.22;;;24.56;54.77
21863;BME280;11096;51.338;12.524;2023-07-20T07:05:15;99825.22;;;24.64;54.47
21863;BME280;11096;51.338;12.524;2023-07-20T07:07:41;99825.59;;;24.68;54.20
21863;BME280;11096;51.338;12.524;2023-07-20T07:10:07;99821.72;;;24.37;53.13
21863;BME280;11096;51.338;12.524;2023-07-20T07:12:33;99834.06;;;23.90;53.63
21863;BME280;11096;51.338;12.524;2023-07-20T07:15:00;99821.88;;;24.15;52.96
21863;BME280;11096;51.338;12.524;2023-07-20T07:17:25;99831.44;;;23.96;53.79
21863;BME280;11096;51.338;12.524;2023-07-20T07:19:51;99832.06;;;23.98;54.50
21863;BME280;11096;51.338;12.524;2023-07-20T07:22:20;99819.03;;;24.90;53.30
21863;BME280;11096;51.338;12.524;2023-07-20T07:24:46;99818.63;;;26.03;51.76
21863;BME280;11096;51.338;12.524;2023-07-20T07:27:12;99808.84;;;26.29;48.21
21863;BME280;11096;51.338;12.524;2023-07-20T07:29:37;99814.81;;;26.24;50.05
21863;BME280;11096;51.338;12.524;2023-07-20T07:32:03;99825.56;;;25.21;50.44
21863;BME280;11096;51.338;12.524;2023-07-20T07:34:28;99825.56;;;24.41;51.37
21863;BME280;11096;51.338;12.524;2023-07-20T07:36:54;99830.72;;;24.56;53.31
21863;BME280;11096;51.338;12.524;2023-07-20T07:39:19;99837.63;;;24.90;52.67
21863;BME280;11096;51.338;12.524;2023-07-20T07:41:45;99833.25;;;23.83;54.30
21863;BME280;11096;51.338;12.524;2023-07-20T07:44:10;99847.28;;;23.35;54.78
21863;BME280;11096;51.338;12.524;2023-07-20T07:46:36;99846.22;;;22.94;55.86
21863;BME280;11096;51.338;12.524;2023-07-20T07:49:01;99855.41;;;22.70;58.34
21863;BME280;11096;51.338;12.524;2023-07-20T07:51:27;99842.75;;;24.32;54.06
21863;BME280;11096;51.338;12.524;2023-07-20T07:53:52;99849.59;;;23.10;54.02
21863;BME280;11096;51.338;12.524;2023-07-20T07:56:18;99855.06;;;21.94;58.16
21863;BME280;11096;51.338;12.524;2023-07-20T07:58:51;99854.38;;;23.21;56.46
21863;BME280;11096;51.338;12.524;2023-07-20T08:01:17;99856.53;;;23.46;55.96
21863;BME280;11096;51.338;12.524;2023-07-20T08:03:44;99852.41;;;23.36;55.12
21863;BME280;11096;51.338;12.524;2023-07-20T08:06:12;99855.56;;;24.21;54.68
21863;BME280;11096;51.338;12.524;2023-07-20T08:08:38;99850.16;;;23.33;54.58
21863;BME280;11096;51.338;12.524;2023-07-20T08:11:04;99849.63;;;23.51;55.01
21863;BME280;11096;51.338;12.524;2023-07-20T08:13:29;99855.78;;;24.20;54.17
21863;BME280;11096;51.338;12.524;2023-07-20T08:15:55;99854.38;;;24.31;53.39
21863;BME280;11096;51.338;12.524;2023-07-20T08:18:20;99853.13;;;24.20;53.74
21863;BME280;11096;51.338;12.524;2023-07-20T08:20:47;99848.91;;;24.66;52.02
21863;BME280;11096;51.338;12.524;2023-07-20T08:23:13;99860.94;;;24.48;52.01
21863;BME280;11096;51.338;12.524;2023-07-20T08:25:39;99862.16;;;23.71;55.04
21863;BME280;11096;51.338;12.524;2023-07-20T08:28:09;99849.50;;;24.88;50.45
21863;BME280;11096;51.338;12.524;2023-07-20T08:30:48;99850.09;;;24.30;52.55
21863;BME280;11096;51.338;12.524;2023-07-20T08:33:15;99852.09;;;24.08;53.92
21863;BME280;11096;51.338;12.524;2023-07-20T08:35:41;99861.31;;;24.25;52.76
21863;BME280;11096;51.338;12.524;2023-07-20T08:38:06;99854.59;;;25.09;52.42
21863;BME280;11096;51.338;12.524;2023-07-20T08:40:33;99862.41;;;24.84;51.36
21863;BME280;11096;51.338;12.524;2023-07-20T08:42:59;99854.56;;;24.16;51.81
21863;BME280;11096;51.338;12.524;2023-07-20T08:45:27;99872.50;;;23.59;53.34
21863;BME280;11096;51.338;12.524;2023-07-20T08:47:58;99868.53;;;23.76;53.42
21863;BME280;11096;51.338;12.524;2023-07-20T08:50:25;99857.59;;;23.51;53.98
21863;BME280;11096;51.338;12.524;2023-07-20T08:52:52;99859.44;;;23.16;54.81
21863;BME280;11096;51.338;12.524;2023-07-20T08:55:20;99858.72;;;23.01;54.94
21863;BME280;11096;51.338;12.524;2023-07-20T08:57:49;99868.84;;;23.25;55.29
21863;BME280;11096;51.338;12.524;2023-07-20T09:00:16;99861.06;;;23.17;55.45
21863;BME280;11096;51.338;12.524;2023-07-20T09:02:44;99859.63;;;24.04;52.33
21863;BME280;11096;51.338;12.524;2023-07-20T09:05:10;99848.47;;;27.86;46.26
21863;BME280;11096;51.338;12.524;2023-07-20T09:07:36;99828.81;;;27.99;40.91
21863;BME280;11096;51.338;12.524;2023-07-20T09:10:02;99826.84;;;28.83;42.06
21863;BME280;11096;51.338;12.524;2023-07-20T09:12:34;99824.47;;;33.98;34.67
21863;BME280;11096;51.338;12.524;2023-07-20T09:15:00;99804.28;;;38.32;27.84
21863;BME280;11096;51.338;12.524;2023-07-20T09:17:26;99795.91;;;40.43;24.65
21863;BME280;11096;51.338;12.524;2023-07-20T09:19:52;99793.22;;;37.20;27.10
21863;BME280;11096;51.338;12.524;2023-07-20T09:22:17;99799.59;;;34.83;29.71
21863;BME280;11096;51.338;12.524;2023-07-20T09:24:43;99802.13;;;31.70;33.83
21863;BME280;11096;51.338;12.524;2023-07-20T09:27:09;99810.31;;;28.86;39.45
21863;BME280;11096;51.338;12.524;2023-07-20T09:29:47;99818.72;;;26.47;43.37
21863;BME280;11096;51.338;12.524;2023-07-20T09:32:20;99817.06;;;25.89;45.13
21863;BME280;11096;51.338;12.524;2023-07-20T09:34:47;99813.25;;;25.33;46.58
21863;BME280;11096;51.338;12.524;2023-07-20T09:37:13;99819.44;;;24.07;49.64
21863;BME280;11096;51.338;12.524;2023-07-20T09:39:45;99824.50;;;24.02;50.67
21863;BME280;11096;51.338;12.524;2023-07-20T09:42:14;99835.38;;;24.34;49.95
21863;BME280;11096;51.338;12.524;2023-07-20T09:44:42;99833.13;;;24.17;49.55
21863;BME280;11096;51.338;12.524;2023-07-20T09:47:08;99834.25;;;23.82;50.58
21863;BME280;11096;51.338;12.524;2023-07-20T09:49:41;99832.88;;;24.06;51.60
21863;BME280;11096;51.338;12.524;2023-07-20T09:52:11;99841.63;;;23.99;52.21
21863;BME280;11096;51.338;12.524;2023-07-20T09:54:40;99850.22;;;23.47;54.83
21863;BME280;11096;51.338;12.524;2023-07-20T09:57:08;99850.59;;;23.78;54.67
21863;BME280;11096;51.338;12.524;2023-07-20T09:59:37;99864.75;;;23.23;59.97
21863;BME280;11096;51.338;12.524;2023-07-20T10:02:10;99868.59;;;21.84;63.49
21863;BME280;11096;51.338;12.524;2023-07-20T10:04:38;99875.25;;;21.80;65.21
21863;BME280;11096;51.338;12.524;2023-07-20T10:07:08;99889.88;;;21.47;67.36
21863;BME280;11096;51.338;12.524;2023-07-20T10:09:39;99898.97;;;21.14;71.71
21863;BME280;11096;51.338;12.524;2023-07-20T10:12:07;99920.03;;;19.43;85.90
21863;BME280;11096;51.338;12.524;2023-07-20T10:14:35;99927.16;;;19.35;93.26
21863;BME280;11096;51.338;12.524;2023-07-20T10:17:05;99929.78;;;18.69;97.58
21863;BME280;11096;51.338;12.524;2023-07-20T10:19:43;99920.34;;;19.57;100.00
21863;BME280;11096;51.338;12.524;2023-07-20T10:22:19;99929.97;;;20.28;100.00
21863;BME280;11096;51.338;12.524;2023-07-20T10:24:46;99917.72;;;20.82;100.00
21863;BME280;11096;51.338;12.524;2023-07-20T10:27:13;99929.81;;;21.67;100.00
21863;BME280;11096;51.338;12.524;2023-07-20T10:29:40;99928.78;;;21.68;100.00
21863;BME280;11096;51.338;12.524;2023-07-20T10:32:07;99923.97;;;21.86;97.75
21863;BME280;11096;51.338;12.524;2023-07-20T10:34:33;99917.72;;;22.08;95.87
21863;BME280;11096;51.338;12.524;2023-07-20T10:36:59;99922.59;;;22.63;100.00
21863;BME280;11096;51.338;12.524;2023-07-20T10:39:30;99912.41;;;22.66;99.43
21863;BME280;11096;51.338;12.524;2023-07-20T10:42:09;99919.53;;;22.44;96.00
21863;BME280;11096;51.338;12.524;2023-07-20T10:44:39;99915.44;;;22.20;91.97
21863;BME280;11096;51.338;12.524;2023-07-20T10:47:12;99925.59;;;21.72;95.88
21863;BME280;11096;51.338;12.524;2023-07-20T10:50:02;99921.47;;;21.99;99.17
21863;BME280;11096;51.338;12.524;2023-07-20T10:52:38;99921.78;;;21.60;94.16
21863;BME280;11096;51.338;12.524;2023-07-20T10:55:14;99917.56;;;21.80;96.41
21863;BME280;11096;51.338;12.524;2023-07-20T10:57:40;99914.22;;;21.42;96.16
21863;BME280;11096;51.338;12.524;2023-07-20T11:00:14;99918.75;;;21.78;100.00
21863;BME280;11096;51.338;12.524;2023-07-20T11:02:45;99921.94;;;21.73;100.00
21863;BME280;11096;51.338;12.524;2023-07-20T11:05:47;99919.84;;;22.35;100.00
21863;BME280;11096;51.338;12.524;2023-07-20T11:08:39;99916.56;;;23.25;100.00
21863;BME280;11096;51.338;12.524;2023-07-20T11:11:23;99914.59;;;23.06;100.00
21863;BME280;11096;51.338;12.524;2023-07-20T11:16:52;99907.66;;;23.33;100.00
21863;BME280;11096;51.338;12.524;2023-07-20T11:19:23;99913.59;;;24.25;96.49
21863;BME280;11096;51.338;12.524;2023-07-20T11:21:55;99908.19;;;24.73;97.64
21863;BME280;11096;51.338;12.524;2023-07-20T11:24:21;99905.72;;;25.31;94.28
21863;BME280;11096;51.338;12.524;2023-07-20T11:29:17;99903.44;;;26.38;85.54
21863;BME280;11096;51.338;12.524;2023-07-20T11:31:45;99898.13;;;26.00;77.45
21863;BME280;11096;51.338;12.524;2023-07-20T11:34:15;99915.44;;;24.17;80.47
21863;BME280;11096;51.338;12.524;2023-07-20T11:36:41;99923.75;;;23.66;73.52
21863;BME280;11096;51.338;12.524;2023-07-20T11:39:11;99916.03;;;23.71;69.05
21863;BME280;11096;51.338;12.524;2023-07-20T11:41:37;99905.78;;;23.62;65.79
21863;BME280;11096;51.338;12.524;2023-07-20T11:44:04;99901.19;;;25.38;64.84
21863;BME280;11096;51.338;12.524;2023-07-20T11:46:31;99911.50;;;24.00;64.01
21863;BME280;11096;51.338;12.524;2023-07-20T11:48:58;99906.81;;;23.67;62.94
21863;BME280;11096;51.338;12.524;2023-07-20T11:51:28;99901.84;;;23.16;63.08
21863;BME280;11096;51.338;12.524;2023-07-20T11:53:55;99906.88;;;23.39;63.81
21863;BME280;11096;51.338;12.524;2023-07-20T11:56:20;99904.63;;;23.08;64.28
21863;BME280;11096;51.338;12.524;2023-07-20T11:58:46;99905.84;;;23.05;62.76
21863;BME280;11096;51.338;12.524;2023-07-20T12:01:12;99906.63;;;24.10;62.42
21863;BME280;11096;51.338;12.524;2023-07-20T12:03:38;99905.19;;;24.08;59.05
21863;BME280;11096;51.338;12.524;2023-07-20T12:06:08;99912.25;;;25.09;58.11
21863;BME280;11096;51.338;12.524;2023-07-20T12:08:33;99900.41;;;24.91;56.51
21863;BME280;11096;51.338;12.524;2023-07-20T12:10:59;99912.94;;;24.03;57.92
21863;BME280;11096;51.338;12.524;2023-07-20T12:13:35;99921.53;;;23.70;59.64
21863;BME280;11096;51.338;12.524;2023-07-20T12:16:08;99911.25;;;24.83;58.34
21863;BME280;11096;51.338;12.524;2023-07-20T12:18:35;99915.38;;;24.04;58.38
21863;BME280;11096;51.338;12.524;2023-07-20T12:21:01;99917.47;;;24.15;59.81
21863;BME280;11096;51.338;12.524;2023-07-20T12:23:35;99921.22;;;23.51;62.85
21863;BME280;11096;51.338;12.524;2023-07-20T12:26:01;99906.75;;;23.19;63.47
21863;BME280;11096;51.338;12.524;2023-07-20T12:28:26;99918.34;;;23.11;66.54
21863;BME280;11096;51.338;12.524;2023-07-20T12:30:51;99915.00;;;23.31;66.44
21863;BME280;11096;51.338;12.524;2023-07-20T12:33:22;99900.22;;;26.29;57.41
21863;BME280;11096;51.338;12.524;2023-07-20T12:35:48;99901.66;;;26.25;55.62
21863;BME280;11096;51.338;12.524;2023-07-20T12:38:14;99899.81;;;27.70;53.81
21863;BME280;11096;51.338;12.524;2023-07-20T12:40:41;99901.00;;;27.18;53.26
21863;BME280;11096;51.338;12.524;2023-07-20T12:43:06;99893.69;;;26.25;54.57
21863;BME280;11096;51.338;12.524;2023-07-20T12:45:33;99897.22;;;28.42;50.63
21863;BME280;11096;51.338;12.524;2023-07-20T12:47:58;99889.78;;;31.15;44.19
21863;BME280;11096;51.338;12.524;2023-07-20T12:50:24;99873.63;;;29.97;43.93
21863;BME280;11096;51.338;12.524;2023-07-20T12:52:49;99883.56;;;30.59;42.59
21863;BME280;11096;51.338;12.524;2023-07-20T12:55:15;99866.81;;;31.02;39.68
21863;BME280;11096;51.338;12.524;2023-07-20T12:57:41;99874.31;;;31.39;40.15
21863;BME280;11096;51.338;12.524;2023-07-20T13:00:09;99875.16;;;31.06;39.92
21863;BME280;11096;51.338;12.524;2023-07-20T13:02:35;99873.22;;;32.44;39.13
21863;BME280;11096;51.338;12.524;2023-07-20T13:05:01;99869.16;;;33.79;37.97